sensor_id;sensor_type;location;lat;lon;timestamp;pressure;altitude;pressure_sealevel;temperature;humidity
29247;BME280;16272;48.188;9.964;2023-04-04T00:01:31;96420.34;;;0.27;56.49
29247;BME280;16272;48.188;9.964;2023-04-04T00:03:56;96416.75;;;0.10;56.30
29247;BME280;16272;48.188;9.964;2023-04-04T00:06:23;96418.25;;;-0.03;56.14
29247;BME280;16272;48.188;9.964;2023-04-04T00:08:48;96416.63;;;-0.06;56.99
29247;BME280;16272;48.188;9.964;2023-04-04T00:11:13;96420.44;;;0.06;57.00
29247;BME280;16272;48.188;9.964;2023-04-04T00:13:40;96411.53;;;0.10;56.95
29247;BME280;16272;48.188;9.964;2023-04-04T00:16:05;96414.66;;;-0.01;55.43
29247;BME280;16272;48.188;9.964;2023-04-04T00:18:32;96411.69;;;0.07;55.76
29247;BME280;16272;48.188;9.964;2023-04-04T00:20:58;96410.16;;;-0.16;57.30
29247;BME280;16272;48.188;9.964;2023-04-04T00:23:24;96412.25;;;-0.05;56.18
29247;BME280;16272;48.188;9.964;2023-04-04T00:25:50;96416.63;;;-0.06;56.27
29247;BME280;16272;48.188;9.964;2023-04-04T00:28:17;96400.69;;;-0.19;56.87
29247;BME280;16272;48.188;9.964;2023-04-04T00:30:42;96399.19;;;0.14;56.52
29247;BME280;16272;48.188;9.964;2023-04-04T00:33:07;96399.16;;;-0.23;57.09
29247;BME280;16272;48.188;9.964;2023-04-04T00:35:33;96402.94;;;-0.11;56.39
29247;BME280;16272;48.188;9.964;2023-04-04T00:37:58;96406.31;;;-0.09;56.58
29247;BME280;16272;48.188;9.964;2023-04-04T00:40:24;96394.69;;;-0.21;56.63
29247;BME280;16272;48.188;9.964;2023-04-04T00:42:50;96391.31;;;-0.23;57.24
29247;BME280;16272;48.188;9.964;2023-04-04T00:45:16;96397.03;;;-0.14;56.92
29247;BME280;16272;48.188;9.964;2023-04-04T00:47:42;96390.19;;;-0.36;57.22
29247;BME280;16272;48.188;9.964;2023-04-04T00:50:08;96391.59;;;-0.29;57.48
29247;BME280;16272;48.188;9.964;2023-04-04T00:52:33;96389.53;;;-0.22;57.20
29247;BME280;16272;48.188;9.964;2023-04-04T00:54:59;96391.81;;;-0.14;56.87
29247;BME280;16272;48.188;9.964;2023-04-04T00:57:27;96385.28;;;-0.25;57.94
29247;BME280;16272;48.188;9.964;2023-04-04T00:59:53;96377.41;;;-0.23;57.22
29247;BME280;16272;48.188;9.964;2023-04-04T01:02:20;96377.81;;;-0.13;57.10
29247;BME280;16272;48.188;9.964;2023-04-04T01:04:45;96376.47;;;-0.41;58.71
29247;BME280;16272;48.188;9.964;2023-04-04T01:07:11;96378.88;;;-0.37;57.89
29247;BME280;16272;48.188;9.964;2023-04-04T01:09:36;96382.41;;;-0.19;58.16
29247;BME280;16272;48.188;9.964;2023-04-04T01:12:02;96380.94;;;-0.43;58.03
29247;BME280;16272;48.188;9.964;2023-04-04T01:14:27;96374.03;;;-0.44;58.99
29247;BME280;16272;48.188;9.964;2023-04-04T01:16:52;96379.38;;;-0.28;57.76
29247;BME280;16272;48.188;9.964;2023-04-04T01:19:25;96378.81;;;-0.35;58.04
29247;BME280;16272;48.188;9.964;2023-04-04T01:21:55;96372.75;;;-0.54;58.68
29247;BME280;16272;48.188;9.964;2023-04-04T01:24:22;96373.38;;;-0.49;59.19
29247;BME280;16272;48.188;9.964;2023-04-04T01:26:50;96374.16;;;-0.66;58.82
29247;BME280;16272;48.188;9.964;2023-04-04T01:29:15;96363.25;;;-0.56;58.59
29247;BME280;16272;48.188;9.964;2023-04-04T01:31:46;96372.00;;;-0.77;59.72
29247;BME280;16272;48.188;9.964;2023-04-04T01:34:26;96365.47;;;-0.48;59.51
29247;BME280;16272;48.188;9.964;2023-04-04T01:37:15;96362.81;;;-0.46;58.25
29247;BME280;16272;48.188;9.964;2023-04-04T01:39:59;96356.25;;;-0.55;59.28
29247;BME280;16272;48.188;9.964;2023-04-04T01:42:29;96355.72;;;-0.82;59.94
29247;BME280;16272;48.188;9.964;2023-04-04T01:44:55;96364.47;;;-0.83;60.37
29247;BME280;16272;48.188;9.964;2023-04-04T01:47:23;96354.00;;;-0.44;59.75
29247;BME280;16272;48.188;9.964;2023-04-04T01:49:49;96356.94;;;-0.51;59.66
29247;BME280;16272;48.188;9.964;2023-04-04T01:52:14;96349.03;;;-0.69;59.85
29247;BME280;16272;48.188;9.964;2023-04-04T01:54:39;96347.50;;;-0.73;60.32
29247;BME280;16272;48.188;9.964;2023-04-04T01:57:04;96341.88;;;-0.64;59.50
29247;BME280;16272;48.188;9.964;2023-04-04T01:59:40;96346.94;;;-0.80;60.18
29247;BME280;16272;48.188;9.964;2023-04-04T02:02:05;96338.03;;;-0.76;60.06
29247;BME280;16272;48.188;9.964;2023-04-04T02:04:31;96345.09;;;-0.78;60.90
29247;BME280;16272;48.188;9.964;2023-04-04T02:06:56;96337.91;;;-0.72;60.75
29247;BME280;16272;48.188;9.964;2023-04-04T02:09:22;96356.22;;;-0.74;60.68
29247;BME280;16272;48.188;9.964;2023-04-04T02:11:48;96341.56;;;-0.58;59.81
29247;BME280;16272;48.188;9.964;2023-04-04T02:14:13;96342.97;;;-0.69;59.70
29247;BME280;16272;48.188;9.964;2023-04-04T02:16:38;96338.06;;;-0.57;60.21
29247;BME280;16272;48.188;9.964;2023-04-04T02:19:04;96329.72;;;-0.84;60.31
29247;BME280;16272;48.188;9.964;2023-04-04T02:21:29;96334.75;;;-0.60;59.76
29247;BME280;16272;48.188;9.964;2023-04-04T02:23:54;96331.34;;;-0.81;60.94
29247;BME280;16272;48.188;9.964;2023-04-04T02:26:20;96333.53;;;-0.91;61.47
29247;BME280;16272;48.188;9.964;2023-04-04T02:28:52;96333.69;;;-0.75;60.95
29247;BME280;16272;48.188;9.964;2023-04-04T02:31:17;96335.94;;;-0.86;61.13
29247;BME280;16272;48.188;9.964;2023-04-04T02:33:43;96329.97;;;-1.09;61.78
29247;BME280;16272;48.188;9.964;2023-04-04T02:36:08;96335.09;;;-0.87;61.03
29247;BME280;16272;48.188;9.964;2023-04-04T02:38:33;96327.03;;;-0.82;60.45
29247;BME280;16272;48.188;9.964;2023-04-04T02:40:59;96334.50;;;-0.94;61.50
29247;BME280;16272;48.188;9.964;2023-04-04T02:43:24;96323.78;;;-0.87;60.89
29247;BME280;16272;48.188;9.964;2023-04-04T02:45:49;96322.63;;;-0.80;60.63
29247;BME280;16272;48.188;9.964;2023-04-04T02:48:15;96329.63;;;-0.82;60.98
29247;BME280;16272;48.188;9.964;2023-04-04T02:50:40;96333.22;;;-1.04;62.31
29247;BME280;16272;48.188;9.964;2023-04-04T02:53:06;96334.22;;;-1.06;61.67
29247;BME280;16272;48.188;9.964;2023-04-04T02:55:31;96330.13;;;-0.93;61.02
29247;BME280;16272;48.188;9.964;2023-04-04T02:57:57;96336.75;;;-1.05;61.79
29247;BME280;16272;48.188;9.964;2023-04-04T03:00:22;96336.06;;;-0.89;60.62
29247;BME280;16272;48.188;9.964;2023-04-04T03:02:54;96335.28;;;-0.91;61.74
29247;BME280;16272;48.188;9.964;2023-04-04T03:05:20;96335.19;;;-1.09;62.15
29247;BME280;16272;48.188;9.964;2023-04-04T03:07:47;96330.72;;;-1.07;61.49
29247;BME280;16272;48.188;9.964;2023-04-04T03:10:12;96342.34;;;-1.14;63.01
29247;BME280;16272;48.188;9.964;2023-04-04T03:12:37;96335.75;;;-1.02;61.71
29247;BME280;16272;48.188;9.964;2023-04-04T03:15:03;96327.16;;;-0.85;61.60
29247;BME280;16272;48.188;9.964;2023-04-04T03:17:29;96324.66;;;-0.87;60.86
29247;BME280;16272;48.188;9.964;2023-04-04T03:19:55;96326.59;;;-0.92;61.32
29247;BME280;16272;48.188;9.964;2023-04-04T03:22:20;96324.75;;;-1.09;62.51
29247;BME280;16272;48.188;9.964;2023-04-04T03:24:45;96330.06;;;-0.91;61.59
29247;BME280;16272;48.188;9.964;2023-04-04T03:27:11;96332.25;;;-1.01;61.70
29247;BME280;16272;48.188;9.964;2023-04-04T03:29:36;96325.53;;;-1.07;61.92
29247;BME280;16272;48.188;9.964;2023-04-04T03:32:02;96335.31;;;-1.12;62.50
29247;BME280;16272;48.188;9.964;2023-04-04T03:34:27;96323.34;;;-1.16;62.09
29247;BME280;16272;48.188;9.964;2023-04-04T03:36:52;96333.34;;;-1.07;61.82
29247;BME280;16272;48.188;9.964;2023-04-04T03:39:18;96324.88;;;-1.12;62.52
29247;BME280;16272;48.188;9.964;2023-04-04T03:41:43;96323.41;;;-1.18;62.43
29247;BME280;16272;48.188;9.964;2023-04-04T03:44:09;96320.41;;;-1.29;62.82
29247;BME280;16272;48.188;9.964;2023-04-04T03:46:34;96329.69;;;-1.42;64.57
29247;BME280;16272;48.188;9.964;2023-04-04T03:49:10;96326.91;;;-1.19;62.72
29247;BME280;16272;48.188;9.964;2023-04-04T03:51:37;96327.09;;;-1.23;63.62
29247;BME280;16272;48.188;9.964;2023-04-04T03:54:02;96327.75;;;-1.18;62.95
29247;BME280;16272;48.188;9.964;2023-04-04T03:56:29;96329.59;;;-1.20;62.52
29247;BME280;16272;48.188;9.964;2023-04-04T03:58:55;96331.28;;;-1.19;62.75
29247;BME280;16272;48.188;9.964;2023-04-04T04:01:21;96324.78;;;-1.30;62.95
29247;BME280;16272;48.188;9.964;2023-04-04T04:03:47;96325.56;;;-1.27;63.55
29247;BME280;16272;48.188;9.964;2023-04-04T04:06:12;96325.19;;;-1.39;63.62
29247;BME280;16272;48.188;9.964;2023-04-04T04:08:39;96326.94;;;-1.60;64.82
29247;BME280;16272;48.188;9.964;2023-04-04T04:11:05;96336.16;;;-1.53;64.17
29247;BME280;16272;48.188;9.964;2023-04-04T04:13:31;96338.06;;;-1.56;63.69
29247;BME280;16272;48.188;9.964;2023-04-04T04:15:56;96331.16;;;-1.37;63.32
29247;BME280;16272;48.188;9.964;2023-04-04T04:18:21;96328.50;;;-1.35;62.84
29247;BME280;16272;48.188;9.964;2023-04-04T04:20:47;96331.41;;;-1.43;63.93
29247;BME280;16272;48.188;9.964;2023-04-04T04:23:13;96331.75;;;-1.30;63.51
29247;BME280;16272;48.188;9.964;2023-04-04T04:25:38;96333.13;;;-1.42;63.00
29247;BME280;16272;48.188;9.964;2023-04-04T04:28:03;96335.31;;;-1.53;64.15
29247;BME280;16272;48.188;9.964;2023-04-04T04:30:29;96340.66;;;-1.56;64.20
29247;BME280;16272;48.188;9.964;2023-04-04T04:32:55;96334.56;;;-1.55;64.19
29247;BME280;16272;48.188;9.964;2023-04-04T04:35:20;96331.81;;;-1.52;64.30
29247;BME280;16272;48.188;9.964;2023-04-04T04:37:46;96339.00;;;-1.57;64.30
29247;BME280;16272;48.188;9.964;2023-04-04T04:40:12;96331.28;;;-1.40;63.79
29247;BME280;16272;48.188;9.964;2023-04-04T04:42:43;96336.56;;;-1.62;64.67
29247;BME280;16272;48.188;9.964;2023-04-04T04:45:15;96341.91;;;-1.65;65.25
29247;BME280;16272;48.188;9.964;2023-04-04T04:47:41;96344.03;;;-1.54;64.07
29247;BME280;16272;48.188;9.964;2023-04-04T04:50:08;96339.75;;;-1.35;63.96
29247;BME280;16272;48.188;9.964;2023-04-04T04:52:35;96341.97;;;-1.46;63.49
29247;BME280;16272;48.188;9.964;2023-04-04T04:55:01;96346.34;;;-1.46;63.89
29247;BME280;16272;48.188;9.964;2023-04-04T04:57:26;96351.47;;;-1.45;63.70
29247;BME280;16272;48.188;9.964;2023-04-04T05:00:01;96343.03;;;-1.30;62.66
29247;BME280;16272;48.188;9.964;2023-04-04T05:02:28;96337.22;;;-1.36;63.83
29247;BME280;16272;48.188;9.964;2023-04-04T05:04:53;96352.13;;;-1.60;64.12
29247;BME280;16272;48.188;9.964;2023-04-04T05:07:18;96346.78;;;-1.37;62.99
29247;BME280;16272;48.188;9.964;2023-04-04T05:09:44;96358.06;;;-1.36;63.09
29247;BME280;16272;48.188;9.964;2023-04-04T05:12:09;96357.34;;;-1.60;64.16
29247;BME280;16272;48.188;9.964;2023-04-04T05:14:38;96348.09;;;-1.26;62.79
29247;BME280;16272;48.188;9.964;2023-04-04T05:17:04;96354.50;;;-1.13;62.50
29247;BME280;16272;48.188;9.964;2023-04-04T05:19:30;96353.63;;;-1.14;62.31
29247;BME280;16272;48.188;9.964;2023-04-04T05:21:55;96352.66;;;-1.11;62.09
29247;BME280;16272;48.188;9.964;2023-04-04T05:24:20;96347.00;;;-1.02;62.10
29247;BME280;16272;48.188;9.964;2023-04-04T05:26:47;96367.34;;;-1.10;62.11
29247;BME280;16272;48.188;9.964;2023-04-04T05:29:18;96351.94;;;-0.75;61.55
29247;BME280;16272;48.188;9.964;2023-04-04T05:31:44;96351.94;;;-0.75;61.45
29247;BME280;16272;48.188;9.964;2023-04-04T05:34:09;96356.16;;;-0.91;61.80
29247;BME280;16272;48.188;9.964;2023-04-04T05:36:35;96353.97;;;-0.63;60.89
29247;BME280;16272;48.188;9.964;2023-04-04T05:39:01;96352.16;;;-0.61;60.88
29247;BME280;16272;48.188;9.964;2023-04-04T05:41:29;96357.31;;;-0.99;60.50
29247;BME280;16272;48.188;9.964;2023-04-04T05:43:54;96354.56;;;-0.75;61.55
29247;BME280;16272;48.188;9.964;2023-04-04T05:46:26;96360.59;;;-0.75;62.27
29247;BME280;16272;48.188;9.964;2023-04-04T05:48:52;96359.03;;;-0.98;60.81
29247;BME280;16272;48.188;9.964;2023-04-04T05:51:17;96365.13;;;-0.99;61.33
29247;BME280;16272;48.188;9.964;2023-04-04T05:53:43;96359.06;;;-0.60;60.98
29247;BME280;16272;48.188;9.964;2023-04-04T05:56:10;96354.28;;;-0.50;59.44
29247;BME280;16272;48.188;9.964;2023-04-04T05:58:36;96362.59;;;-0.23;59.99
29247;BME280;16272;48.188;9.964;2023-04-04T06:01:07;96361.88;;;-0.07;59.45
29247;BME280;16272;48.188;9.964;2023-04-04T06:03:33;96356.75;;;-0.28;60.49
29247;BME280;16272;48.188;9.964;2023-04-04T06:05:58;96362.47;;;-0.20;59.54
29247;BME280;16272;48.188;9.964;2023-04-04T06:08:27;96362.16;;;-0.13;59.62
29247;BME280;16272;48.188;9.964;2023-04-04T06:10:52;96359.91;;;-0.21;59.69
29247;BME280;16272;48.188;9.964;2023-04-04T06:13:19;96358.63;;;-0.12;58.77
29247;BME280;16272;48.188;9.964;2023-04-04T06:15:44;96362.88;;;-0.29;58.66
29247;BME280;16272;48.188;9.964;2023-04-04T06:18:09;96357.44;;;-0.24;60.49
29247;BME280;16272;48.188;9.964;2023-04-04T06:20:35;96363.78;;;-0.30;59.75
29247;BME280;16272;48.188;9.964;2023-04-04T06:23:00;96366.47;;;-0.50;60.43
29247;BME280;16272;48.188;9.964;2023-04-04T06:25:33;96364.31;;;-0.41;59.30
29247;BME280;16272;48.188;9.964;2023-04-04T06:27:58;96360.63;;;-0.56;60.35
29247;BME280;16272;48.188;9.964;2023-04-04T06:30:37;96362.75;;;-0.26;60.82
29247;BME280;16272;48.188;9.964;2023-04-04T06:33:04;96357.47;;;-0.07;60.03
29247;BME280;16272;48.188;9.964;2023-04-04T06:35:30;96355.47;;;0.17;58.67
29247;BME280;16272;48.188;9.964;2023-04-04T06:37:57;96354.84;;;-0.43;59.40
29247;BME280;16272;48.188;9.964;2023-04-04T06:40:31;96353.63;;;0.20;58.90
29247;BME280;16272;48.188;9.964;2023-04-04T06:42:56;96356.97;;;0.04;58.46
29247;BME280;16272;48.188;9.964;2023-04-04T06:45:25;96362.53;;;0.15;61.17
29247;BME280;16272;48.188;9.964;2023-04-04T06:47:51;96363.00;;;-0.13;60.33
29247;BME280;16272;48.188;9.964;2023-04-04T06:50:17;96358.63;;;-0.12;60.93
29247;BME280;16272;48.188;9.964;2023-04-04T06:52:43;96362.16;;;-0.51;60.80
29247;BME280;16272;48.188;9.964;2023-04-04T06:55:08;96357.31;;;0.15;61.69
29247;BME280;16272;48.188;9.964;2023-04-04T06:57:34;96357.50;;;0.47;58.01
29247;BME280;16272;48.188;9.964;2023-04-04T07:00:22;96356.69;;;0.28;58.49
29247;BME280;16272;48.188;9.964;2023-04-04T07:02:47;96358.75;;;0.58;58.45
29247;BME280;16272;48.188;9.964;2023-04-04T07:05:21;96366.66;;;0.02;60.53
29247;BME280;16272;48.188;9.964;2023-04-04T07:07:50;96365.78;;;0.02;60.38
29247;BME280;16272;48.188;9.964;2023-04-04T07:10:23;96366.94;;;-0.04;61.58
29247;BME280;16272;48.188;9.964;2023-04-04T07:12:48;96360.94;;;0.30;58.46
29247;BME280;16272;48.188;9.964;2023-04-04T07:15:22;96350.59;;;0.46;57.60
29247;BME280;16272;48.188;9.964;2023-04-04T07:17:47;96361.69;;;0.15;58.88
29247;BME280;16272;48.188;9.964;2023-04-04T07:20:12;96356.59;;;0.66;57.59
29247;BME280;16272;48.188;9.964;2023-04-04T07:22:40;96353.88;;;0.15;59.03
29247;BME280;16272;48.188;9.964;2023-04-04T07:25:07;96353.13;;;0.11;60.35
29247;BME280;16272;48.188;9.964;2023-04-04T07:27:33;96347.03;;;0.47;61.40
29247;BME280;16272;48.188;9.964;2023-04-04T07:29:58;96339.44;;;1.11;56.71
29247;BME280;16272;48.188;9.964;2023-04-04T07:32:23;96343.09;;;0.73;56.40
29247;BME280;16272;48.188;9.964;2023-04-04T07:34:51;96348.84;;;0.28;57.96
29247;BME280;16272;48.188;9.964;2023-04-04T07:37:16;96351.78;;;0.91;58.81
29247;BME280;16272;48.188;9.964;2023-04-04T07:40:03;96350.72;;;0.78;60.43
29247;BME280;16272;48.188;9.964;2023-04-04T07:42:29;96353.03;;;0.67;59.29
29247;BME280;16272;48.188;9.964;2023-04-04T07:44:55;96346.97;;;1.17;55.80
29247;BME280;16272;48.188;9.964;2023-04-04T07:47:20;96348.69;;;1.18;56.82
29247;BME280;16272;48.188;9.964;2023-04-04T07:49:46;96341.47;;;1.55;53.84
29247;BME280;16272;48.188;9.964;2023-04-04T07:52:13;96342.88;;;0.78;57.15
29247;BME280;16272;48.188;9.964;2023-04-04T07:54:39;96347.72;;;1.19;57.16
29247;BME280;16272;48.188;9.964;2023-04-04T07:57:07;96339.78;;;1.54;56.62
29247;BME280;16272;48.188;9.964;2023-04-04T07:59:37;96337.16;;;1.86;53.91
29247;BME280;16272;48.188;9.964;2023-04-04T08:02:02;96335.88;;;1.93;52.54
29247;BME280;16272;48.188;9.964;2023-04-04T08:04:28;96346.84;;;1.52;54.98
29247;BME280;16272;48.188;9.964;2023-04-04T08:06:54;96346.22;;;1.64;55.20
29247;BME280;16272;48.188;9.964;2023-04-04T08:09:19;96333.84;;;1.51;55.84
29247;BME280;16272;48.188;9.964;2023-04-04T08:11:44;96335.63;;;2.74;53.36
29247;BME280;16272;48.188;9.964;2023-04-04T08:14:10;96335.50;;;2.92;51.82
29247;BME280;16272;48.188;9.964;2023-04-04T08:16:37;96360.91;;;1.51;54.98
29247;BME280;16272;48.188;9.964;2023-04-04T08:19:03;96340.13;;;1.80;52.01
29247;BME280;16272;48.188;9.964;2023-04-04T08:21:28;96341.66;;;2.46;50.18
29247;BME280;16272;48.188;9.964;2023-04-04T08:23:54;96348.31;;;2.52;49.49
29247;BME280;16272;48.188;9.964;2023-04-04T08:26:19;96343.16;;;2.81;49.06
29247;BME280;16272;48.188;9.964;2023-04-04T08:28:46;96342.53;;;2.61;53.67
29247;BME280;16272;48.188;9.964;2023-04-04T08:31:12;96345.81;;;2.34;51.87
29247;BME280;16272;48.188;9.964;2023-04-04T08:33:37;96334.75;;;3.04;48.99
29247;BME280;16272;48.188;9.964;2023-04-04T08:36:02;96344.81;;;2.67;46.08
29247;BME280;16272;48.188;9.964;2023-04-04T08:38:28;96341.69;;;3.05;49.44
29247;BME280;16272;48.188;9.964;2023-04-04T08:40:54;96348.31;;;2.52;49.77
29247;BME280;16272;48.188;9.964;2023-04-04T08:43:20;96340.63;;;2.49;49.37
29247;BME280;16272;48.188;9.964;2023-04-04T08:45:48;96333.88;;;2.45;51.30
29247;BME280;16272;48.188;9.964;2023-04-04T08:48:14;96340.34;;;2.98;49.82
29247;BME280;16272;48.188;9.964;2023-04-04T08:50:42;96342.78;;;3.73;46.25
29247;BME280;16272;48.188;9.964;2023-04-04T08:53:09;96335.28;;;3.67;44.56
29247;BME280;16272;48.188;9.964;2023-04-04T08:55:35;96337.06;;;2.94;45.21
29247;BME280;16272;48.188;9.964;2023-04-04T08:58:00;96335.84;;;2.86;47.13
29247;BME280;16272;48.188;9.964;2023-04-04T09:00:29;96346.00;;;3.49;46.94
29247;BME280;16272;48.188;9.964;2023-04-04T09:03:00;96337.72;;;2.98;48.25
29247;BME280;16272;48.188;9.964;2023-04-04T09:05:27;96343.75;;;3.00;50.29
29247;BME280;16272;48.188;9.964;2023-04-04T09:07:53;96341.03;;;3.30;48.05
29247;BME280;16272;48.188;9.964;2023-04-04T09:10:19;96334.94;;;3.16;50.03
29247;BME280;16272;48.188;9.964;2023-04-04T09:12:46;96342.69;;;3.89;49.47
29247;BME280;16272;48.188;9.964;2023-04-04T09:15:13;96335.69;;;3.46;46.98
29247;BME280;16272;48.188;9.964;2023-04-04T09:17:39;96340.75;;;3.49;47.24
29247;BME280;16272;48.188;9.964;2023-04-04T09:20:33;96342.13;;;4.11;46.67
29247;BME280;16272;48.188;9.964;2023-04-04T09:22:58;96344.22;;;4.33;47.31
29247;BME280;16272;48.188;9.964;2023-04-04T09:25:24;96336.44;;;3.48;47.63
29247;BME280;16272;48.188;9.964;2023-04-04T09:27:51;96337.66;;;4.53;49.31
29247;BME280;16272;48.188;9.964;2023-04-04T09:30:19;96341.22;;;5.05;44.33
29247;BME280;16272;48.188;9.964;2023-04-04T09:32:44;96347.31;;;4.93;43.76
29247;BME280;16272;48.188;9.964;2023-04-04T09:35:10;96336.25;;;5.39;43.35
29247;BME280;16272;48.188;9.964;2023-04-04T09:37:39;96326.72;;;6.85;43.97
29247;BME280;16272;48.188;9.964;2023-04-04T09:40:05;96349.13;;;5.57;39.54
29247;BME280;16272;48.188;9.964;2023-04-04T09:42:31;96333.16;;;7.27;40.36
29247;BME280;16272;48.188;9.964;2023-04-04T09:45:05;96356.09;;;6.07;43.15
29247;BME280;16272;48.188;9.964;2023-04-04T09:47:30;96366.00;;;4.35;44.20
29247;BME280;16272;48.188;9.964;2023-04-04T09:49:58;96356.00;;;4.68;42.42
29247;BME280;16272;48.188;9.964;2023-04-04T09:52:25;96360.88;;;4.19;46.51
29247;BME280;16272;48.188;9.964;2023-04-04T09:54:55;96362.25;;;4.39;49.98
29247;BME280;16272;48.188;9.964;2023-04-04T09:57:21;96361.03;;;4.03;46.93
29247;BME280;16272;48.188;9.964;2023-04-04T09:59:46;96361.75;;;4.20;45.70
29247;BME280;16272;48.188;9.964;2023-04-04T10:02:12;96345.13;;;6.14;42.67
29247;BME280;16272;48.188;9.964;2023-04-04T10:04:37;96347.75;;;5.51;43.71
29247;BME280;16272;48.188;9.964;2023-04-04T10:07:03;96340.69;;;5.64;53.13
29247;BME280;16272;48.188;9.964;2023-04-04T10:09:28;96342.31;;;6.88;40.93
29247;BME280;16272;48.188;9.964;2023-04-04T10:12:07;96326.31;;;7.47;38.81
29247;BME280;16272;48.188;9.964;2023-04-04T10:14:34;96331.84;;;6.75;41.69
29247;BME280;16272;48.188;9.964;2023-04-04T10:17:06;96334.19;;;6.91;39.30
29247;BME280;16272;48.188;9.964;2023-04-04T10:19:33;96342.03;;;6.20;39.92
29247;BME280;16272;48.188;9.964;2023-04-04T10:22:01;96334.13;;;7.15;38.09
29247;BME280;16272;48.188;9.964;2023-04-04T10:24:27;96340.13;;;6.81;38.88
29247;BME280;16272;48.188;9.964;2023-04-04T10:26:52;96334.75;;;7.41;41.58
29247;BME280;16272;48.188;9.964;2023-04-04T10:29:19;96330.28;;;6.72;41.78
29247;BME280;16272;48.188;9.964;2023-04-04T10:31:45;96343.41;;;7.43;41.39
29247;BME280;16272;48.188;9.964;2023-04-04T10:34:14;96353.53;;;5.56;42.35
29247;BME280;16272;48.188;9.964;2023-04-04T10:36:48;96345.63;;;6.19;39.35
29247;BME280;16272;48.188;9.964;2023-04-04T10:39:20;96336.91;;;5.43;45.54
29247;BME280;16272;48.188;9.964;2023-04-04T10:41:50;96344.88;;;5.54;49.77
29247;BME280;16272;48.188;9.964;2023-04-04T10:44:39;96351.13;;;6.64;43.26
29247;BME280;16272;48.188;9.964;2023-04-04T10:47:17;96344.81;;;6.78;47.81
29247;BME280;16272;48.188;9.964;2023-04-04T10:49:44;96349.38;;;5.91;42.61
29247;BME280;16272;48.188;9.964;2023-04-04T10:52:11;96352.16;;;5.63;44.33
29247;BME280;16272;48.188;9.964;2023-04-04T10:54:41;96341.00;;;5.34;42.74
29247;BME280;16272;48.188;9.964;2023-04-04T10:57:09;96336.47;;;4.85;43.68
29247;BME280;16272;48.188;9.964;2023-04-04T11:00:04;96331.81;;;6.39;41.90
29247;BME280;16272;48.188;9.964;2023-04-04T11:03:01;96328.84;;;8.05;40.90
29247;BME280;16272;48.188;9.964;2023-04-04T11:05:32;96331.13;;;7.99;40.18
29247;BME280;16272;48.188;9.964;2023-04-04T11:08:03;96306.94;;;8.79;36.93
29247;BME280;16272;48.188;9.964;2023-04-04T11:13:01;96326.06;;;7.05;43.69
29247;BME280;16272;48.188;9.964;2023-04-04T11:15:57;96328.91;;;5.94;46.81
29247;BME280;16272;48.188;9.964;2023-04-04T11:20:55;96325.03;;;6.24;45.56
29247;BME280;16272;48.188;9.964;2023-04-04T11:23:21;96321.31;;;6.02;45.55
29247;BME280;16272;48.188;9.964;2023-04-04T11:26:01;96312.88;;;7.50;41.78
29247;BME280;16272;48.188;9.964;2023-04-04T11:28:42;96310.31;;;8.49;40.75
29247;BME280;16272;48.188;9.964;2023-04-04T11:34:09;96309.75;;;7.68;36.92
29247;BME280;16272;48.188;9.964;2023-04-04T11:39:28;96314.31;;;7.32;43.53
29247;BME280;16272;48.188;9.964;2023-04-04T11:42:05;96312.34;;;6.89;41.36
29247;BME280;16272;48.188;9.964;2023-04-04T11:44:39;96320.97;;;6.31;54.10
29247;BME280;16272;48.188;9.964;2023-04-04T11:49:33;96314.91;;;5.81;43.54
29247;BME280;16272;48.188;9.964;2023-04-04T11:52:04;96314.91;;;5.81;41.76
29247;BME280;16272;48.188;9.964;2023-04-04T11:54:30;96308.56;;;5.96;46.95
29247;BME280;16272;48.188;9.964;2023-04-04T11:56:56;96318.47;;;5.17;43.25
29247;BME280;16272;48.188;9.964;2023-04-04T11:59:22;96301.94;;;6.15;44.40
29247;BME280;16272;48.188;9.964;2023-04-04T12:01:50;96312.75;;;6.12;46.23
29247;BME280;16272;48.188;9.964;2023-04-04T12:04:18;96300.72;;;8.48;39.72
29247;BME280;16272;48.188;9.964;2023-04-04T12:06:54;96289.16;;;8.38;35.58
29247;BME280;16272;48.188;9.964;2023-04-04T12:09:22;96295.72;;;8.22;36.89
29247;BME280;16272;48.188;9.964;2023-04-04T12:11:49;96299.59;;;8.51;36.84
29247;BME280;16272;48.188;9.964;2023-04-04T12:14:16;96294.34;;;9.14;34.94
29247;BME280;16272;48.188;9.964;2023-04-04T12:16:43;96307.78;;;7.02;44.07
29247;BME280;16272;48.188;9.964;2023-04-04T12:19:09;96304.16;;;5.84;43.95
29247;BME280;16272;48.188;9.964;2023-04-04T12:21:35;96305.63;;;5.75;45.15
29247;BME280;16272;48.188;9.964;2023-04-04T12:24:01;96296.13;;;6.22;45.20
29247;BME280;16272;48.188;9.964;2023-04-04T12:26:26;96284.78;;;7.27;44.23
29247;BME280;16272;48.188;9.964;2023-04-04T12:28:55;96273.00;;;8.52;36.13
29247;BME280;16272;48.188;9.964;2023-04-04T12:31:23;96264.56;;;7.82;36.19
29247;BME280;16272;48.188;9.964;2023-04-04T12:33:49;96278.50;;;7.16;38.87
29247;BME280;16272;48.188;9.964;2023-04-04T12:36:16;96287.06;;;7.31;36.41
29247;BME280;16272;48.188;9.964;2023-04-04T12:38:59;96280.69;;;7.34;37.78
29247;BME280;16272;48.188;9.964;2023-04-04T12:41:25;96281.28;;;7.15;39.26
29247;BME280;16272;48.188;9.964;2023-04-04T12:43:59;96277.78;;;7.71;36.54
29247;BME280;16272;48.188;9.964;2023-04-04T12:46:25;96285.00;;;7.12;44.89
29247;BME280;16272;48.188;9.964;2023-04-04T12:48:55;96285.84;;;7.47;40.71
29247;BME280;16272;48.188;9.964;2023-04-04T12:51:29;96282.78;;;6.84;42.89
29247;BME280;16272;48.188;9.964;2023-04-04T12:53:55;96280.06;;;6.50;45.34
29247;BME280;16272;48.188;9.964;2023-04-04T12:56:25;96277.47;;;6.61;43.06
29247;BME280;16272;48.188;9.964;2023-04-04T12:58:51;96269.22;;;7.90;38.32
29247;BME280;16272;48.188;9.964;2023-04-04T13:01:19;96262.00;;;8.24;36.73
29247;BME280;16272;48.188;9.964;2023-04-04T13:03:45;96267.19;;;7.94;37.26
29247;BME280;16272;48.188;9.964;2023-04-04T13:06:12;96255.19;;;8.96;34.21
29247;BME280;16272;48.188;9.964;2023-04-04T13:08:48;96260.91;;;8.71;35.55
29247;BME280;16272;48.188;9.964;2023-04-04T13:11:14;96258.84;;;8.42;37.07
29247;BME280;16272;48.188;9.964;2023-04-04T13:13:40;96264.00;;;7.56;35.54
29247;BME280;16272;48.188;9.964;2023-04-04T13:16:27;96271.56;;;7.38;36.99
29247;BME280;16272;48.188;9.964;2023-04-04T13:18:55;96265.72;;;8.01;38.41
29247;BME280;16272;48.188;9.964;2023-04-04T13:21:21;96277.31;;;7.54;39.03